Time;durP1;ratioP1;P1;durP2;ratioP2;P2;SDS_P1;SDS_P2;PMS_P1;PMS_P2;Temp;Humidity;BMP_temperature;BMP_pressure;BME280_temperature;BME280_humidity;BME280_pressure;Samples;Min_cycle;Max_cycle;Signal;HPM_P1;HPM_P2
2023/03/20 00:00:48;;;;;;;;;;;12.60;99.90;;;;;;5013885;28;20021;-73
2023/03/20 00:03:15;;;;;;;5.82;2.70;;;12.50;99.90;;;;;;5031443;28;19905;-77
2023/03/20 00:05:44;;;;;;;4.70;3.17;;;12.60;99.90;;;;;;5030997;28;20132;-77
2023/03/20 00:08:11;;;;;;;5.88;2.97;;;12.60;99.90;;;;;;5024170;28;20030;-77
2023/03/20 00:10:42;;;;;;;9.18;3.38;;;12.70;99.90;;;;;;5011598;28;20042;-77
2023/03/20 00:13:16;;;;;;;7.05;3.50;;;12.60;99.90;;;;;;4993620;28;20113;-75
2023/03/20 00:15:44;;;;;;;9.35;3.47;;;12.70;99.90;;;;;;5011244;28;20033;-76
2023/03/20 00:18:34;;;;;;;9.88;3.55;;;12.70;99.90;;;;;;5011339;28;20022;-76
2023/03/20 00:21:02;;;;;;;7.78;3.50;;;12.70;99.90;;;;;;5011521;28;20026;-76
2023/03/20 00:23:31;;;;;;;9.85;4.25;;;12.70;99.90;;;;;;5011544;28;20037;-77
2023/03/20 00:26:00;;;;;;;8.98;4.10;;;12.70;99.90;;;;;;5011656;28;20026;-76
2023/03/20 00:28:56;;;;;;;8.07;4.03;;;12.50;99.90;;;;;;5011161;28;20026;-76
2023/03/20 00:31:29;;;;;;;5.80;3.50;;;12.60;99.90;;;;;;5008681;28;20042;-77
2023/03/20 00:34:05;;;;;;;11.60;3.78;;;12.60;99.90;;;;;;5010733;28;20038;-76
2023/03/20 00:36:32;;;;;;;6.28;3.78;;;12.60;99.90;;;;;;5011050;28;20096;-77
2023/03/20 00:38:58;;;;;;;8.68;3.83;;;12.70;99.90;;;;;;5003778;28;20569;-77
2023/03/20 00:41:47;;;;;;;9.77;4.15;;;12.70;99.90;;;;;;5010969;28;20076;-76
2023/03/20 00:44:24;;;;;;;6.35;3.55;;;12.70;99.90;;;;;;4993164;28;20055;-76
2023/03/20 00:47:00;;;;;;;8.88;4.32;;;12.70;99.90;;;;;;5014892;28;20073;-77
2023/03/20 00:49:31;;;;;;;5.53;3.05;;;12.70;99.90;;;;;;5014846;28;20030;-77
2023/03/20 00:52:00;;;;;;;7.57;3.30;;;12.70;99.90;;;;;;5014371;28;20129;-77
2023/03/20 00:54:26;;;;;;;4.75;3.22;;;12.70;99.90;;;;;;4996586;28;20374;-76
2023/03/20 00:57:24;;;;;;;5.35;2.88;;;12.60;99.90;;;;;;4996020;28;20081;-77
2023/03/20 01:00:07;;;;;;;6.70;3.22;;;12.50;99.90;;;;;;5014239;28;20041;-73
2023/03/20 01:02:37;;;;;;;6.80;3.50;;;12.40;99.90;;;;;;5014782;28;20034;-77
2023/03/20 01:05:04;;;;;;;7.72;3.80;;;12.40;99.90;;;;;;5013990;28;20452;-76
2023/03/20 01:07:30;;;;;;;9.40;3.88;;;12.40;99.90;;;;;;5014078;28;20022;-77
2023/03/20 01:09:56;;;;;;;6.28;3.75;;;12.40;99.90;;;;;;4996542;28;20042;-78
2023/03/20 01:12:24;;;;;;;7.27;3.47;;;12.40;99.90;;;;;;5013978;28;20438;-78
2023/03/20 01:14:57;;;;;;;5.88;3.60;;;12.40;99.90;;;;;;5012344;28;20038;-77
2023/03/20 01:17:25;;;;;;;5.95;3.17;;;12.40;99.90;;;;;;5011241;28;20419;-75
2023/03/20 01:19:52;;;;;;;9.07;3.42;;;12.50;99.90;;;;;;5013524;28;20084;-75
2023/03/20 01:22:18;;;;;;;8.10;3.58;;;12.50;99.90;;;;;;5013981;28;20028;-77
2023/03/20 01:24:45;;;;;;;8.73;3.20;;;12.50;99.90;;;;;;5014528;28;20104;-77
2023/03/20 01:27:18;;;;;;;7.90;3.67;;;12.60;99.90;;;;;;5000941;28;20033;-75
2023/03/20 01:29:46;;;;;;;6.88;3.58;;;12.50;99.90;;;;;;5028980;28;20041;-76
2023/03/20 01:32:15;;;;;;;6.10;3.10;;;12.50;99.90;;;;;;5033470;28;20018;-73
2023/03/20 01:34:42;;;;;;;10.45;3.58;;;12.60;99.90;;;;;;5033327;28;20099;-72
2023/03/20 01:37:17;;;;;;;9.38;3.10;;;12.60;99.90;;;;;;5033316;28;20040;-76
2023/03/20 01:39:44;;;;;;;6.30;3.33;;;12.60;99.90;;;;;;5013356;28;20431;-76
2023/03/20 01:42:13;;;;;;;;;;;12.50;99.90;;;;;;5014194;28;20029;-76
2023/03/20 01:44:39;;;;;;;4.40;2.22;;;12.50;99.90;;;;;;5013430;28;20052;-74
2023/03/20 01:47:22;;;;;;;5.43;2.63;;;12.50;99.90;;;;;;4995617;28;20045;-76
2023/03/20 01:50:26;;;;;;;5.35;2.70;;;12.50;99.90;;;;;;5013247;28;20029;-75
2023/03/20 01:53:15;;;;;;;4.90;2.60;;;12.70;99.90;;;;;;5013597;28;20030;-76
2023/03/20 01:55:44;;;;;;;7.47;2.92;;;12.60;99.90;;;;;;5012767;28;20100;-75
2023/03/20 01:58:26;;;;;;;3.67;2.38;;;12.60;99.90;;;;;;5012980;28;20030;-76
2023/03/20 02:00:53;;;;;;;7.72;2.75;;;12.60;99.90;;;;;;5013009;28;20045;-76
2023/03/20 02:03:20;;;;;;;7.80;2.60;;;12.60;99.90;;;;;;5012925;28;20483;-76
2023/03/20 02:05:46;;;;;;;8.35;2.65;;;12.60;99.90;;;;;;5012661;28;20069;-77
2023/03/20 02:08:26;;;;;;;8.02;2.78;;;12.60;99.90;;;;;;5020320;28;20101;-77
2023/03/20 02:10:54;;;;;;;8.65;2.60;;;12.50;99.90;;;;;;5014624;28;20044;-77
2023/03/20 02:13:21;;;;;;;3.95;2.35;;;12.50;99.90;;;;;;5032560;28;20079;-77
2023/03/20 02:16:10;;;;;;;5.18;2.53;;;12.60;99.90;;;;;;5032307;28;20108;-78
2023/03/20 02:18:37;;;;;;;5.38;2.55;;;12.50;99.90;;;;;;5032360;28;20018;-77
2023/03/20 02:21:32;;;;;;;6.97;2.75;;;12.50;99.90;;;;;;5032466;28;20056;-77
2023/03/20 02:24:44;;;;;;;7.68;2.80;;;12.40;99.90;;;;;;5035410;28;20030;-77
2023/03/20 02:27:26;;;;;;;7.47;2.80;;;12.40;99.90;;;;;;5032742;28;20083;-77
2023/03/20 02:30:13;;;;;;;6.97;2.67;;;12.40;99.90;;;;;;5032222;28;20040;-77
2023/03/20 02:33:13;;;;;;;6.75;2.60;;;12.40;99.90;;;;;;5032529;28;20028;-77
2023/03/20 02:36:18;;;;;;;4.65;2.25;;;12.50;99.90;;;;;;5003886;28;20052;-78
2023/03/20 02:39:00;;;;;;;5.45;2.33;;;12.50;99.90;;;;;;5014160;28;20393;-77
2023/03/20 02:41:32;;;;;;;5.22;2.60;;;12.40;99.90;;;;;;5032401;28;20103;-77
2023/03/20 02:44:10;;;;;;;5.00;2.42;;;12.40;99.90;;;;;;5014175;28;20029;-77
2023/03/20 02:47:08;;;;;;;4.57;2.50;;;12.40;99.90;;;;;;5014117;28;20062;-77
2023/03/20 02:49:41;;;;;;;9.40;2.90;;;12.40;99.90;;;;;;5032067;28;20437;-77
2023/03/20 02:52:47;;;;;;;5.25;2.40;;;12.40;99.90;;;;;;5014003;28;20505;-77
2023/03/20 02:55:16;;;;;;;;;;;12.40;99.90;;;;;;5014326;28;20017;-77
2023/03/20 02:58:37;;;;;;;10.77;2.80;;;12.40;99.90;;;;;;5032024;28;19905;-75
2023/03/20 03:01:10;;;;;;;5.80;3.22;;;12.40;99.90;;;;;;4951135;29;20059;-77
2023/03/20 03:04:03;;;;;;;4.10;2.70;;;12.40;99.90;;;;;;4951861;29;20140;-77
2023/03/20 03:06:32;;;;;;;7.32;2.80;;;12.40;99.90;;;;;;4951598;28;20151;-77
2023/03/20 03:09:10;;;;;;;7.35;2.72;;;12.40;99.90;;;;;;4950926;29;20472;-78
2023/03/20 03:12:00;;;;;;;5.65;2.88;;;12.30;99.90;;;;;;4951263;29;20043;-77
2023/03/20 03:14:36;;;;;;;4.78;2.25;;;12.30;99.90;;;;;;4935018;29;20500;-77
2023/03/20 03:17:05;;;;;;;5.97;2.50;;;12.40;99.90;;;;;;4951519;29;20047;-77
2023/03/20 03:19:35;;;;;;;4.68;2.67;;;12.40;99.90;;;;;;4951227;29;20058;-77
2023/03/20 03:22:02;;;;;;;7.82;2.95;;;12.40;99.90;;;;;;4935178;29;20031;-77
2023/03/20 03:24:36;;;;;;;8.43;2.85;;;12.40;99.90;;;;;;4951094;29;20050;-77
2023/03/20 03:27:17;;;;;;;6.70;3.00;;;12.40;99.90;;;;;;4951014;29;20171;-77
2023/03/20 03:29:48;;;;;;;6.82;2.97;;;12.40;99.90;;;;;;4950706;29;20027;-78
2023/03/20 03:32:45;;;;;;;7.72;2.65;;;12.50;99.90;;;;;;4992351;28;20068;-78
2023/03/20 03:35:17;;;;;;;4.90;2.72;;;12.50;99.90;;;;;;4984102;28;20406;-77
2023/03/20 03:38:20;;;;;;;9.20;3.20;;;12.40;99.90;;;;;;5022020;28;20083;-77
2023/03/20 03:41:05;;;;;;;5.28;2.72;;;12.50;99.90;;;;;;5017905;28;20029;-77
2023/03/20 03:43:37;;;;;;;10.60;3.10;;;12.60;99.90;;;;;;5031413;28;20021;-77
2023/03/20 03:46:11;;;;;;;6.55;2.72;;;12.70;99.90;;;;;;5031953;28;20025;-78
2023/03/20 03:48:48;;;;;;;9.30;2.88;;;12.70;99.90;;;;;;5031203;28;20022;-77
2023/03/20 03:51:27;;;;;;;6.45;3.17;;;12.80;99.90;;;;;;5031458;28;20105;-77
2023/03/20 03:54:18;;;;;;;6.07;2.90;;;12.80;99.90;;;;;;5031565;28;20026;-77
2023/03/20 03:56:48;;;;;;;4.70;2.78;;;12.70;99.90;;;;;;5022138;28;20056;-78
2023/03/20 03:59:33;;;;;;;6.05;2.70;;;12.80;99.90;;;;;;5031263;28;20541;-79
2023/03/20 04:02:02;;;;;;;6.43;3.05;;;12.80;99.90;;;;;;5031672;28;20048;-76
2023/03/20 04:04:30;;;;;;;6.40;3.70;;;12.70;99.90;;;;;;5009876;28;20065;-77
2023/03/20 04:06:57;;;;;;;5.82;2.95;;;12.50;99.90;;;;;;5011754;28;20030;-77
2023/03/20 04:09:23;;;;;;;6.55;2.78;;;12.40;99.90;;;;;;5011742;28;20120;-77
2023/03/20 04:11:52;;;;;;;4.57;3.10;;;12.40;99.90;;;;;;5011714;28;20449;-77
2023/03/20 04:14:19;;;;;;;6.95;2.80;;;12.30;99.90;;;;;;5011811;28;20117;-78
2023/03/20 04:16:46;;;;;;;8.05;3.35;;;12.30;99.90;;;;;;5012190;28;20022;-77
2023/03/20 04:19:12;;;;;;;7.22;3.08;;;12.10;99.90;;;;;;5011973;28;20033;-77
2023/03/20 04:21:38;;;;;;;5.90;2.90;;;12.20;99.90;;;;;;5015460;28;20026;-77
2023/03/20 04:24:07;;;;;;;11.70;3.43;;;12.10;99.90;;;;;;5016244;28;20268;-77
2023/03/20 04:26:36;;;;;;;8.07;3.05;;;12.00;99.90;;;;;;5014666;28;20022;-78
2023/03/20 04:29:03;;;;;;;7.53;3.55;;;12.10;99.90;;;;;;5015768;28;20026;-77
2023/03/20 04:31:29;;;;;;;5.80;3.20;;;12.10;99.90;;;;;;5015821;28;20018;-78
2023/03/20 04:33:57;;;;;;;9.15;3.65;;;12.00;99.90;;;;;;5015793;28;20033;-77
2023/03/20 04:36:23;;;;;;;8.07;3.70;;;12.00;99.90;;;;;;5014348;28;20117;-77
2023/03/20 04:38:52;;;;;;;4.90;3.70;;;12.00;99.90;;;;;;5015632;28;20030;-77
2023/03/20 04:41:20;;;;;;;9.05;5.05;;;11.90;99.90;;;;;;5014112;28;20024;-77
2023/03/20 04:43:46;;;;;;;11.15;4.65;;;11.90;99.90;;;;;;5015105;28;20045;-78
2023/03/20 04:46:13;;;;;;;8.97;4.27;;;11.90;99.90;;;;;;5014091;28;20022;-77
2023/03/20 04:48:39;;;;;;;6.40;3.90;;;11.90;99.90;;;;;;5015996;28;20022;-77
2023/03/20 04:51:05;;;;;;;10.10;4.70;;;11.90;99.90;;;;;;5015715;28;20091;-77
2023/03/20 04:53:32;;;;;;;8.82;4.38;;;11.90;99.90;;;;;;5015450;28;20040;-77
2023/03/20 04:55:58;;;;;;;7.47;4.00;;;12.00;99.90;;;;;;5015366;28;20063;-77
2023/03/20 04:58:24;;;;;;;7.63;4.55;;;12.00;99.90;;;;;;5015248;28;20259;-77
2023/03/20 05:00:50;;;;;;;7.20;4.30;;;12.10;99.90;;;;;;5015140;28;20063;-78
2023/03/20 05:03:16;;;;;;;8.37;4.43;;;12.20;99.90;;;;;;5015397;28;20017;-78
2023/03/20 05:05:43;;;;;;;7.07;4.40;;;12.10;99.90;;;;;;5028686;28;20056;-77
2023/03/20 05:08:09;;;;;;;12.45;4.60;;;12.10;99.90;;;;;;5035170;28;20038;-77
2023/03/20 05:10:36;;;;;;;8.07;4.25;;;12.10;99.90;;;;;;5016863;28;20034;-77
2023/03/20 05:13:03;;;;;;;9.27;4.60;;;12.10;99.90;;;;;;5034632;28;20545;-78
2023/03/20 05:15:30;;;;;;;8.33;3.97;;;12.10;99.90;;;;;;5034408;28;20032;-78
2023/03/20 05:18:00;;;;;;;8.48;4.18;;;12.10;99.90;;;;;;5035109;28;20026;-78
2023/03/20 05:20:31;;;;;;;9.48;4.07;;;12.10;99.90;;;;;;5035134;28;20495;-78
2023/03/20 05:22:57;;;;;;;10.07;4.25;;;12.20;99.90;;;;;;5034200;28;20155;-78
2023/03/20 05:25:23;;;;;;;8.87;4.10;;;12.10;99.90;;;;;;5034934;28;20104;-78
2023/03/20 05:27:49;;;;;;;6.90;3.92;;;12.00;99.90;;;;;;5035359;28;20022;-78
2023/03/20 05:30:18;;;;;;;7.50;4.20;;;12.10;99.90;;;;;;5034055;28;20033;-78
2023/03/20 05:32:44;;;;;;;5.97;3.83;;;12.10;99.90;;;;;;5034750;28;20758;-78
2023/03/20 05:35:11;;;;;;;8.35;3.92;;;12.10;99.90;;;;;;5035406;28;20413;-78
2023/03/20 05:37:38;;;;;;;10.82;4.63;;;12.20;99.90;;;;;;5032886;28;20025;-75
2023/03/20 05:40:05;;;;;;;5.15;3.88;;;12.10;99.90;;;;;;4997873;28;20437;-78
2023/03/20 05:42:32;;;;;;;8.65;4.28;;;12.20;99.90;;;;;;5014837;28;20044;-78
2023/03/20 05:44:58;;;;;;;7.97;4.70;;;12.30;99.90;;;;;;5015137;28;20052;-78
2023/03/20 05:47:24;;;;;;;8.50;4.07;;;12.40;99.90;;;;;;5014829;28;20444;-78
2023/03/20 05:49:50;;;;;;;6.97;4.45;;;12.40;99.90;;;;;;5014381;28;20037;-78
2023/03/20 05:52:16;;;;;;;13.18;5.28;;;12.20;99.90;;;;;;4996897;28;20374;-77
2023/03/20 05:54:43;;;;;;;6.45;4.15;;;12.20;99.90;;;;;;5014709;28;20022;-78
2023/03/20 05:57:09;;;;;;;7.20;4.50;;;12.20;99.90;;;;;;5014462;28;20116;-78
2023/03/20 05:59:35;;;;;;;8.53;5.80;;;12.30;99.90;;;;;;5014647;28;20440;-78
2023/03/20 06:02:02;;;;;;;8.48;4.50;;;12.50;99.90;;;;;;5013847;28;20021;-78
2023/03/20 06:04:28;;;;;;;10.30;4.67;;;12.60;99.90;;;;;;5013866;28;20100;-78
2023/03/20 06:06:54;;;;;;;7.20;4.43;;;12.60;99.90;;;;;;5013922;28;20018;-78
2023/03/20 06:09:23;;;;;;;8.32;4.30;;;12.50;99.90;;;;;;5013521;28;20030;-78
2023/03/20 06:11:50;;;;;;;10.57;4.80;;;12.40;99.90;;;;;;5013780;28;20057;-78
2023/03/20 06:14:17;;;;;;;8.43;4.20;;;12.40;99.90;;;;;;5013584;28;20532;-78
2023/03/20 06:16:44;;;;;;;7.70;4.50;;;12.30;99.90;;;;;;5014134;28;20060;-78
2023/03/20 06:19:10;;;;;;;;;;;12.30;99.90;;;;;;5014910;28;20512;-77
2023/03/20 06:21:36;;;;;;;13.38;4.53;;;12.30;99.90;;;;;;5013919;28;19906;-76
2023/03/20 06:24:02;;;;;;;10.23;4.43;;;12.20;99.90;;;;;;5014607;28;20034;-77
2023/03/20 06:26:28;;;;;;;9.77;4.73;;;12.30;99.90;;;;;;5014098;28;20030;-78
2023/03/20 06:28:54;;;;;;;13.40;4.47;;;12.30;99.90;;;;;;5014368;28;20613;-76
2023/03/20 06:31:22;;;;;;;11.20;4.20;;;12.30;99.90;;;;;;4995590;28;20053;-77
2023/03/20 06:33:49;;;;;;;7.53;4.07;;;12.30;99.90;;;;;;5013546;28;20029;-77
2023/03/20 06:36:15;;;;;;;7.50;4.22;;;12.40;99.90;;;;;;5013581;28;20026;-79
2023/03/20 06:38:42;;;;;;;8.37;4.67;;;12.40;99.90;;;;;;5032452;28;20044;-78
2023/03/20 06:41:10;;;;;;;8.38;4.47;;;12.50;99.90;;;;;;5033347;28;20322;-80
2023/03/20 06:43:41;;;;;;;10.00;4.28;;;12.60;99.90;;;;;;5031855;28;20037;-80
2023/03/20 06:46:13;;;;;;;8.45;4.45;;;12.70;99.90;;;;;;5032518;28;20036;-77
2023/03/20 06:48:39;;;;;;;12.05;4.63;;;12.50;99.90;;;;;;5031880;28;20064;-79
2023/03/20 06:51:06;;;;;;;7.33;3.97;;;12.70;99.90;;;;;;5032835;28;20175;-79
2023/03/20 06:53:35;;;;;;;;;;;12.80;99.90;;;;;;5014537;28;20268;-79
2023/03/20 06:56:01;;;;;;;7.72;4.20;;;13.00;99.90;;;;;;5032123;28;19959;-78
2023/03/20 06:58:27;;;;;;;7.47;4.80;;;13.00;99.90;;;;;;5033176;28;20104;-79
2023/03/20 07:00:53;;;;;;;9.77;5.50;;;13.00;99.90;;;;;;5032071;28;20049;-79
2023/03/20 07:03:20;;;;;;;6.07;4.00;;;13.00;99.90;;;;;;5014045;28;20025;-79
2023/03/20 07:05:46;;;;;;;13.00;5.03;;;12.90;99.90;;;;;;5032172;28;20061;-78
2023/03/20 07:08:12;;;;;;;9.90;4.67;;;13.20;99.90;;;;;;5032588;28;20390;-78
2023/03/20 07:10:40;;;;;;;7.43;4.90;;;13.40;99.90;;;;;;4999079;28;20520;-80
2023/03/20 07:13:06;;;;;;;9.43;4.53;;;13.60;99.90;;;;;;5032227;28;20021;-80
2023/03/20 07:15:32;;;;;;;9.40;4.23;;;14.10;99.90;;;;;;5032412;28;20140;-79
2023/03/20 07:17:59;;;;;;;8.23;3.97;;;14.10;99.90;;;;;;5032892;28;20049;-79
2023/03/20 07:20:25;;;;;;;8.70;4.03;;;14.20;99.90;;;;;;5032461;28;20041;-79
2023/03/20 07:22:51;;;;;;;8.50;4.13;;;13.90;99.90;;;;;;5032471;28;20449;-81
2023/03/20 07:25:18;;;;;;;9.13;4.50;;;14.20;99.90;;;;;;5032503;28;20056;-82
2023/03/20 07:27:49;;;;;;;7.40;4.53;;;14.50;99.90;;;;;;5032836;28;20034;-81
2023/03/20 07:30:18;;;;;;;9.10;4.03;;;14.30;99.90;;;;;;5032570;28;20080;-80
2023/03/20 07:32:47;;;;;;;10.50;4.20;;;13.70;99.90;;;;;;5032621;28;20044;-82
2023/03/20 07:35:13;;;;;;;8.77;3.95;;;13.80;99.90;;;;;;5032421;28;20018;-81
2023/03/20 07:37:42;;;;;;;9.70;4.40;;;14.30;99.90;;;;;;5032412;28;20036;-81
2023/03/20 07:40:09;;;;;;;8.82;4.00;;;14.40;99.90;;;;;;5032645;28;20103;-80
2023/03/20 07:42:35;;;;;;;13.07;4.18;;;14.60;99.90;;;;;;5014520;28;20021;-80
2023/03/20 07:45:02;;;;;;;10.70;4.37;;;14.40;99.90;;;;;;5032287;28;20022;-80
2023/03/20 07:47:32;;;;;;;12.55;4.35;;;14.50;99.90;;;;;;5032595;28;20287;-79
2023/03/20 07:50:00;;;;;;;6.60;4.07;;;15.00;99.90;;;;;;5032335;28;20105;-81
2023/03/20 07:52:27;;;;;;;10.38;4.05;;;15.40;99.90;;;;;;5031623;28;20120;-81
2023/03/20 07:54:55;;;;;;;11.73;4.78;;;15.30;99.90;;;;;;5035227;28;20083;-79
2023/03/20 07:57:21;;;;;;;8.48;5.47;;;15.00;99.90;;;;;;5036253;28;20025;-81
2023/03/20 07:59:47;;;;;;;10.73;5.57;;;14.70;99.90;;;;;;5036185;28;20389;-82
2023/03/20 08:02:15;;;;;;;11.17;5.90;;;14.60;99.90;;;;;;5036318;28;20021;-80
2023/03/20 08:04:43;;;;;;;12.63;5.53;;;14.50;99.90;;;;;;5017996;28;20053;-79
2023/03/20 08:07:10;;;;;;;9.30;5.53;;;14.60;99.90;;;;;;5002525;28;20393;-79
2023/03/20 08:09:36;;;;;;;9.55;5.38;;;14.50;99.90;;;;;;5036161;28;20501;-79
2023/03/20 08:12:04;;;;;;;8.70;4.13;;;14.50;99.90;;;;;;5036323;28;20018;-76
2023/03/20 08:14:34;;;;;;;7.65;4.90;;;14.40;99.90;;;;;;5018287;28;20044;-77
2023/03/20 08:17:00;;;;;;;12.82;5.38;;;14.60;99.90;;;;;;5036459;28;20017;-77
2023/03/20 08:19:27;;;;;;;5.97;3.70;;;14.70;99.90;;;;;;5036718;28;20086;-80
2023/03/20 08:21:55;;;;;;;8.82;5.15;;;14.40;99.90;;;;;;5037015;28;20755;-79
2023/03/20 08:24:22;;;;;;;6.93;3.92;;;14.30;99.90;;;;;;5018262;28;20539;-77
2023/03/20 08:26:48;;;;;;;10.27;4.45;;;14.50;99.90;;;;;;5035709;28;20239;-76
2023/03/20 08:29:17;;;;;;;8.73;4.80;;;14.30;99.90;;;;;;5035883;28;20025;-80
2023/03/20 08:31:48;;;;;;;12.25;4.70;;;14.60;99.90;;;;;;5035393;28;20029;-81
2023/03/20 08:34:14;;;;;;;8.23;4.50;;;14.90;99.90;;;;;;5035410;28;20041;-77
2023/03/20 08:36:40;;;;;;;15.50;3.88;;;14.80;99.90;;;;;;5035416;28;20033;-76
2023/03/20 08:39:07;;;;;;;7.95;4.53;;;14.40;99.90;;;;;;5035480;28;20036;-77
2023/03/20 08:41:37;;;;;;;8.75;4.60;;;14.30;99.90;;;;;;5035090;28;20036;-77
2023/03/20 08:44:04;;;;;;;5.15;2.67;;;14.80;99.90;;;;;;5035282;28;20021;-78
2023/03/20 08:46:31;;;;;;;14.82;4.22;;;14.70;99.90;;;;;;5035247;28;20034;-76
2023/03/20 08:48:57;;;;;;;5.53;3.28;;;14.80;99.90;;;;;;5035130;28;20064;-77
2023/03/20 08:51:24;;;;;;;9.38;3.30;;;14.70;99.90;;;;;;5035092;28;20091;-77
2023/03/20 08:53:58;;;;;;;7.05;3.78;;;14.60;99.90;;;;;;5000367;28;20068;-77
2023/03/20 08:56:24;;;;;;;6.00;3.35;;;14.90;99.90;;;;;;5034657;28;20030;-76
2023/03/20 08:58:54;;;;;;;;;;;15.20;99.90;;;;;;5035259;28;20060;-79
2023/03/20 09:01:20;;;;;;;9.43;4.18;;;15.50;99.90;;;;;;5034222;28;19971;-78
2023/03/20 09:03:47;;;;;;;8.25;4.60;;;15.60;99.90;;;;;;5016480;28;20381;-76
2023/03/20 09:06:13;;;;;;;6.03;3.28;;;15.70;99.90;;;;;;5032955;28;20049;-78
2023/03/20 09:08:39;;;;;;;8.37;4.10;;;15.20;99.90;;;;;;5034568;28;20037;-78
2023/03/20 09:11:06;;;;;;;11.35;4.55;;;14.80;99.90;;;;;;5000100;28;20822;-78
2023/03/20 09:13:33;;;;;;;19.40;5.47;;;14.50;99.90;;;;;;5033883;28;20021;-78
2023/03/20 09:15:59;;;;;;;9.48;4.40;;;14.60;99.90;;;;;;5034518;28;20081;-76
2023/03/20 09:18:26;;;;;;;7.20;4.57;;;14.30;99.90;;;;;;5035019;28;20474;-78
2023/03/20 09:20:55;;;;;;;8.60;4.40;;;14.30;99.90;;;;;;5034766;28;20017;-77
2023/03/20 09:23:21;;;;;;;8.40;4.22;;;14.50;99.90;;;;;;5017593;28;20567;-76
2023/03/20 09:25:47;;;;;;;7.53;4.68;;;14.10;99.90;;;;;;5016708;28;20021;-77
2023/03/20 09:28:13;;;;;;;7.90;4.75;;;14.40;99.90;;;;;;5016761;28;20025;-77
2023/03/20 09:30:40;;;;;;;7.33;4.30;;;14.70;99.90;;;;;;5034538;28;20496;-77
2023/03/20 09:33:06;;;;;;;10.50;4.68;;;14.70;99.90;;;;;;5034830;28;20021;-77
2023/03/20 09:35:32;;;;;;;8.45;4.85;;;14.80;99.90;;;;;;5016744;28;20035;-79
2023/03/20 09:37:58;;;;;;;10.82;4.82;;;15.20;99.90;;;;;;5034344;28;20103;-75
2023/03/20 09:40:24;;;;;;;10.70;4.60;;;15.60;99.90;;;;;;5034755;28;20025;-76
2023/03/20 09:43:09;;;;;;;7.15;4.28;;;16.00;99.90;;;;;;5017145;28;20033;-78
2023/03/20 09:45:56;;;;;;;5.78;3.80;;;16.30;99.90;;;;;;5034112;28;20500;-76
2023/03/20 09:48:35;;;;;;;12.90;5.25;;;16.50;99.90;;;;;;5034304;28;20458;-77
2023/03/20 09:51:24;;;;;;;9.90;5.00;;;15.90;99.90;;;;;;5034004;28;20051;-78
2023/03/20 09:53:58;;;;;;;7.13;3.50;;;16.40;99.90;;;;;;5034127;28;20081;-78
2023/03/20 09:56:28;;;;;;;7.00;3.50;;;16.80;99.90;;;;;;5034180;28;20030;-77
2023/03/20 09:59:01;;;;;;;6.90;3.38;;;17.00;99.90;;;;;;5017209;28;20450;-79
2023/03/20 10:02:05;;;;;;;6.97;3.03;;;17.10;99.90;;;;;;5033975;28;20044;-79
2023/03/20 10:04:33;;;;;;;10.10;3.72;;;16.80;99.90;;;;;;5022870;28;20041;-79
2023/03/20 10:07:04;;;;;;;8.57;3.53;;;16.70;99.90;;;;;;5034023;28;20033;-79
2023/03/20 10:09:32;;;;;;;11.13;3.55;;;17.00;99.90;;;;;;5033970;28;20481;-79
2023/03/20 10:12:07;;;;;;;9.23;3.83;;;17.30;99.90;;;;;;5015748;28;20497;-81
2023/03/20 10:14:58;;;;;;;15.75;4.30;;;17.60;99.90;;;;;;5033486;28;20017;-81
2023/03/20 10:17:36;;;;;;;11.05;3.38;;;18.00;99.90;;;;;;5033347;28;20026;-81
2023/03/20 10:20:32;;;;;;;8.65;3.00;;;18.40;99.90;;;;;;5034150;28;20067;-80
2023/03/20 10:23:06;;;;;;;8.77;5.30;;;18.50;99.90;;;;;;5033993;28;20071;-80
2023/03/20 10:25:39;;;;;;;6.53;2.60;;;18.50;99.90;;;;;;5033648;28;20028;-79
2023/03/20 10:28:13;;;;;;;8.25;3.20;;;18.00;99.90;;;;;;5032796;28;20382;-79
2023/03/20 10:31:12;;;;;;;4.70;2.95;;;18.10;99.90;;;;;;5032582;28;20047;-79
2023/03/20 10:34:00;;;;;;;6.68;3.22;;;17.00;99.90;;;;;;5033504;28;20068;-80
2023/03/20 10:36:50;;;;;;;6.65;3.00;;;17.20;99.90;;;;;;5033576;28;20031;-81
2023/03/20 10:39:25;;;;;;;5.20;2.45;;;16.60;99.90;;;;;;5032951;28;20482;-81
2023/03/20 10:41:58;;;;;;;6.82;2.45;;;17.00;99.90;;;;;;5033090;28;20485;-80
2023/03/20 10:44:34;;;;;;;7.10;2.78;;;17.40;99.90;;;;;;5033587;28;20550;-80
2023/03/20 10:47:04;;;;;;;4.15;2.60;;;17.60;99.90;;;;;;5032414;28;20100;-78
2023/03/20 10:49:52;;;;;;;6.22;2.78;;;17.60;99.90;;;;;;5032596;28;20476;-79
2023/03/20 10:52:29;;;;;;;6.35;2.72;;;17.40;99.90;;;;;;5032762;28;20037;-80
2023/03/20 10:55:18;;;;;;;7.40;2.78;;;17.50;99.90;;;;;;5032894;28;20477;-78
2023/03/20 10:57:51;;;;;;;5.72;2.42;;;17.70;99.90;;;;;;5018793;28;20063;-79
2023/03/20 11:00:22;;;;;;;10.70;1.67;;;17.90;99.90;;;;;;5032419;28;20053;-80
2023/03/20 11:02:48;;;;;;;5.32;1.80;;;17.60;99.90;;;;;;5032223;28;20104;-79
2023/03/20 11:05:31;;;;;;;4.75;2.00;;;17.30;99.90;;;;;;5014047;28;20397;-80
2023/03/20 11:08:16;;;;;;;3.88;1.52;;;17.00;99.90;;;;;;5032306;28;20079;-80
2023/03/20 11:10:43;;;;;;;5.47;2.10;;;17.10;99.90;;;;;;5014184;28;20041;-77
2023/03/20 11:13:30;;;;;;;;;;;16.90;99.90;;;;;;5032574;28;20468;-71
2023/03/20 11:16:06;;;;;;;6.68;1.95;;;17.20;99.90;;;;;;5013903;28;19962;-76
2023/03/20 11:18:34;;;;;;;4.22;1.75;;;18.00;99.90;;;;;;5032309;28;20041;-76
2023/03/20 11:21:01;;;;;;;5.47;1.70;;;18.40;99.90;;;;;;5032231;28;20029;-76
2023/03/20 11:23:34;;;;;;;4.85;1.70;;;18.60;99.90;;;;;;5032800;28;20466;-76
2023/03/20 11:26:36;;;;;;;3.63;1.50;;;18.30;99.90;;;;;;5015075;28;20108;-76
2023/03/20 11:29:28;;;;;;;3.78;1.35;;;18.50;99.90;;;;;;5025438;28;20042;-75
2023/03/20 11:32:26;;;;;;;5.35;1.42;;;18.10;99.90;;;;;;5031216;28;20051;-70
2023/03/20 11:35:08;;;;;;;6.63;1.35;;;18.00;99.90;;;;;;5032253;28;20121;-74
2023/03/20 11:37:44;;;;;;;4.35;1.40;;;17.90;99.90;;;;;;5032037;28;20034;-75
2023/03/20 11:40:24;;;;;;;3.33;1.40;;;17.60;99.90;;;;;;5032640;28;20125;-76
2023/03/20 11:42:55;;;;;;;6.65;2.20;;;17.20;99.90;;;;;;5032516;28;20021;-77
2023/03/20 11:45:21;;;;;;;5.60;2.10;;;17.80;99.90;;;;;;5031915;28;20033;-74
2023/03/20 11:47:59;;;;;;;7.13;1.85;;;18.30;99.90;;;;;;5014220;28;20021;-77
2023/03/20 11:50:32;;;;;;;6.45;1.58;;;18.50;99.90;;;;;;5032544;28;20038;-75
2023/03/20 11:53:03;;;;;;;3.97;1.40;;;18.70;99.90;;;;;;5032370;28;20020;-73
2023/03/20 11:55:33;;;;;;;4.65;1.40;;;18.70;99.90;;;;;;5031877;28;20025;-74
2023/03/20 11:58:02;;;;;;;3.50;1.50;;;18.60;99.90;;;;;;5032868;28;20454;-75
2023/03/20 12:00:41;;;;;;;5.97;1.58;;;18.70;99.90;;;;;;5031499;28;20032;-73
2023/03/20 12:03:41;;;;;;;4.65;1.70;;;18.70;99.90;;;;;;5031488;28;20076;-75
2023/03/20 12:06:14;;;;;;;8.82;2.45;;;18.60;99.90;;;;;;5031466;28;20107;-74
2023/03/20 12:08:45;;;;;;;4.03;2.38;;;18.60;99.90;;;;;;5015046;28;20045;-73
2023/03/20 12:11:45;;;;;;;5.85;1.73;;;18.40;99.90;;;;;;5031982;28;20080;-69
2023/03/20 12:14:31;;;;;;;4.47;2.13;;;18.40;99.90;;;;;;5031965;28;20113;-73
2023/03/20 12:17:20;;;;;;;;;;;18.80;99.90;;;;;;5016527;28;20482;-74
2023/03/20 12:19:49;;;;;;;6.03;2.55;;;18.90;99.90;;;;;;5006119;28;19992;-74
2023/03/20 12:22:26;;;;;;;6.82;1.90;;;19.00;99.90;;;;;;5032161;28;20139;-74
2023/03/20 12:25:17;;;;;;;5.25;1.63;;;18.70;99.90;;;;;;5031814;28;20544;-73
2023/03/20 12:27:52;;;;;;;7.60;3.03;;;17.70;99.90;;;;;;5032190;28;20033;-74
2023/03/20 12:30:53;;;;;;;8.88;3.25;;;17.50;99.90;;;;;;5032044;28;20041;-74
2023/03/20 12:33:37;;;;;;;7.15;3.03;;;17.20;99.90;;;;;;5032649;28;20021;-73
2023/03/20 12:36:11;;;;;;;7.50;2.00;;;17.90;99.90;;;;;;5031692;28;20120;-72
2023/03/20 12:38:38;;;;;;;6.80;1.92;;;18.50;99.90;;;;;;5031823;28;20033;-73
2023/03/20 12:41:36;;;;;;;11.63;1.75;;;18.70;99.90;;;;;;5035136;28;20119;-74
2023/03/20 12:44:42;;;;;;;3.42;1.80;;;19.30;99.90;;;;;;5031561;28;20065;-74
2023/03/20 12:47:49;;;;;;;5.25;1.50;;;17.30;99.90;;;;;;4996606;28;20064;-73
2023/03/20 12:50:42;;;;;;;6.03;1.80;;;16.40;99.90;;;;;;5016808;28;20461;-74
2023/03/20 12:53:38;;;;;;;5.68;2.28;;;16.80;99.90;;;;;;5045972;28;20025;-74
2023/03/20 12:56:41;;;;;;;4.90;1.73;;;17.10;99.90;;;;;;5054766;28;20037;-74
2023/03/20 12:59:25;;;;;;;7.97;1.98;;;17.70;99.90;;;;;;5036635;28;20029;-76
2023/03/20 13:02:02;;;;;;;6.35;2.00;;;18.40;99.90;;;;;;5036493;28;20025;-76
2023/03/20 13:05:03;;;;;;;5.68;1.95;;;18.60;99.90;;;;;;5036623;28;20104;-76
2023/03/20 13:07:53;;;;;;;10.30;1.85;;;18.80;99.90;;;;;;5054272;28;20021;-73
2023/03/20 13:10:22;;;;;;;11.20;2.35;;;18.70;99.90;;;;;;5034703;28;20116;-73
2023/03/20 13:13:04;;;;;;;7.07;1.52;;;19.10;99.90;;;;;;5035227;28;20095;-74
2023/03/20 13:15:58;;;;;;;4.47;2.00;;;19.20;99.90;;;;;;5035128;28;20552;-73
2023/03/20 13:18:37;;;;;;;6.25;2.05;;;19.30;99.90;;;;;;5035260;28;20380;-73
2023/03/20 13:21:12;;;;;;;6.20;1.65;;;19.20;99.90;;;;;;5035547;28;20022;-73